West Indianapolis, Indiana
Current Conditions -  °F | °C
As of 1:54 AM on Thursday 27 Nov 2014 (Local Time) from KIND Reporting Station
Overcast Overcast  
Wind Chill: 19°   Ceiling: 1900
Heat Index: 28°   Visibility: 10mi
Dew Point: 21°   Wind: 10mph
Humidity: 75%   Direction: 360°N
Pressure: 30.12"   Gusts: NA
Location:  39.6896°N, 86.2406°W
Report Text: KIND 270654Z 36009KT 10SM OVC019 M02/M06 A3012 RMK AO2 SLP208 T10221061
Loading
Personal Weather Stations






























Interactive Weather Map New forecast layout! Learn more

10-Day Weather Forecast

Advertisements
Track Severe Weather on mobile